createdAt,value
2018-06-24T00:01:31.442Z,12.70
2018-06-24T00:03:58.982Z,12.70
2018-06-24T00:06:26.547Z,12.60
2018-06-24T00:08:54.090Z,12.60
2018-06-24T00:11:21.616Z,12.60
2018-06-24T00:16:16.589Z,12.50
2018-06-24T00:18:44.123Z,12.40
2018-06-24T00:21:11.663Z,12.40
2018-06-24T00:23:39.184Z,12.30
2018-06-24T00:26:06.700Z,12.30
2018-06-24T00:28:34.259Z,12.20
2018-06-24T00:31:01.784Z,12.20
2018-06-24T00:33:29.318Z,12.10
2018-06-24T00:35:56.855Z,12.20
2018-06-24T00:38:24.398Z,12.10
2018-06-24T00:40:51.950Z,12.20
2018-06-24T00:43:19.581Z,12.20
2018-06-24T00:45:47.126Z,12.20
2018-06-24T00:48:14.726Z,12.20
2018-06-24T00:50:42.266Z,12.20
2018-06-24T00:53:09.813Z,12.10
2018-06-24T00:55:37.369Z,12.10
2018-06-24T00:58:04.943Z,12.10
2018-06-24T01:00:32.501Z,12.10
2018-06-24T01:03:00.024Z,12.10
2018-06-24T01:07:55.042Z,12.10
2018-06-24T01:10:22.589Z,12.10
2018-06-24T01:12:50.109Z,12.10
2018-06-24T01:15:17.659Z,12.10
2018-06-24T01:17:45.187Z,12.10
2018-06-24T01:20:12.816Z,12.20
2018-06-24T01:22:40.360Z,12.30
2018-06-24T01:25:07.954Z,12.30
2018-06-24T01:27:35.505Z,12.30
2018-06-24T01:30:03.315Z,12.40
2018-06-24T01:32:30.866Z,12.40
2018-06-24T01:34:58.374Z,12.30
2018-06-24T01:37:25.960Z,12.30
2018-06-24T01:39:53.511Z,12.20
2018-06-24T01:42:21.146Z,12.20
2018-06-24T01:44:48.688Z,12.20
2018-06-24T01:47:16.224Z,12.20
2018-06-24T01:49:43.760Z,12.10
2018-06-24T01:52:11.305Z,12.20
2018-06-24T01:54:38.858Z,12.20
2018-06-24T01:57:06.509Z,12.20
2018-06-24T01:59:34.040Z,12.20
2018-06-24T02:02:01.593Z,12.30
2018-06-24T02:04:29.140Z,12.20
2018-06-24T02:06:56.664Z,12.20
2018-06-24T02:09:24.202Z,12.20
2018-06-24T02:11:51.740Z,12.20
2018-06-24T02:14:19.271Z,12.20
2018-06-24T02:16:46.788Z,12.30
2018-06-24T02:19:14.298Z,12.30
2018-06-24T02:21:41.816Z,12.20
2018-06-24T02:24:09.352Z,12.20
2018-06-24T02:26:36.894Z,12.20
2018-06-24T02:29:04.466Z,12.20
2018-06-24T02:31:32.022Z,12.30
2018-06-24T02:33:59.592Z,12.30
2018-06-24T02:36:27.142Z,12.30
2018-06-24T02:38:54.748Z,12.30
2018-06-24T02:41:22.354Z,12.40
2018-06-24T02:43:49.919Z,12.40
2018-06-24T02:46:17.460Z,12.40
2018-06-24T02:48:44.994Z,12.40
2018-06-24T02:51:12.879Z,12.50
2018-06-24T02:53:40.535Z,12.50
2018-06-24T02:56:07.976Z,12.50
2018-06-24T02:58:35.518Z,12.50
2018-06-24T03:01:03.150Z,12.50
2018-06-24T03:03:30.671Z,12.50
2018-06-24T03:05:58.365Z,12.50
2018-06-24T03:08:26.033Z,12.50
2018-06-24T03:10:53.572Z,12.50
2018-06-24T03:13:21.105Z,12.50
2018-06-24T03:15:48.796Z,12.50
2018-06-24T03:20:43.823Z,12.40
2018-06-24T03:23:13.277Z,12.50
2018-06-24T03:25:40.913Z,12.50
2018-06-24T03:28:08.456Z,12.50
2018-06-24T03:30:36.071Z,12.60
2018-06-24T03:33:03.811Z,12.60
2018-06-24T03:35:31.457Z,12.50
2018-06-24T03:37:58.991Z,12.50
2018-06-24T03:40:26.527Z,12.50
2018-06-24T03:42:54.087Z,12.50
2018-06-24T03:45:21.645Z,12.50
2018-06-24T03:47:49.175Z,12.50
2018-06-24T03:50:16.693Z,12.40
2018-06-24T03:52:44.230Z,12.50
2018-06-24T03:55:11.760Z,12.50
2018-06-24T03:57:39.300Z,12.50
2018-06-24T04:00:07.308Z,12.60
2018-06-24T04:02:35.016Z,12.60
2018-06-24T04:05:02.618Z,12.60
2018-06-24T04:07:30.187Z,12.70
2018-06-24T04:09:57.782Z,12.70
2018-06-24T04:12:25.314Z,12.60
2018-06-24T04:14:52.890Z,12.60
2018-06-24T04:17:20.418Z,12.60
2018-06-24T04:19:47.960Z,12.70
2018-06-24T04:22:15.513Z,12.70
2018-06-24T04:24:43.063Z,12.70
2018-06-24T04:27:10.570Z,12.80
2018-06-24T04:29:38.104Z,12.80
2018-06-24T04:32:05.658Z,12.80
2018-06-24T04:34:33.294Z,12.80
2018-06-24T04:37:00.881Z,12.70
2018-06-24T04:39:28.405Z,12.70
2018-06-24T04:41:55.998Z,12.70
2018-06-24T04:44:23.570Z,12.70
2018-06-24T04:46:51.265Z,12.70
2018-06-24T04:49:18.812Z,12.70
2018-06-24T04:51:46.468Z,12.70
2018-06-24T04:54:13.887Z,12.70
2018-06-24T04:56:41.542Z,12.70
2018-06-24T04:59:09.140Z,12.80
2018-06-24T05:01:36.694Z,12.70
2018-06-24T05:04:04.298Z,12.70
2018-06-24T05:06:31.967Z,12.80
2018-06-24T05:08:59.431Z,12.80
2018-06-24T05:11:26.968Z,12.90
2018-06-24T05:13:54.518Z,13.00
2018-06-24T05:16:22.026Z,13.10
2018-06-24T05:18:49.590Z,13.30
2018-06-24T05:21:17.149Z,13.50
2018-06-24T05:23:44.732Z,13.90
2018-06-24T05:26:12.279Z,14.30
2018-06-24T05:28:39.854Z,14.60
2018-06-24T05:31:07.449Z,15.00
2018-06-24T05:33:35.044Z,15.30
2018-06-24T05:36:02.779Z,15.50
2018-06-24T05:38:30.362Z,15.60
2018-06-24T05:40:57.953Z,15.50
2018-06-24T05:43:25.585Z,15.50
2018-06-24T05:45:53.130Z,15.50
2018-06-24T05:48:20.722Z,15.40
2018-06-24T05:50:48.303Z,15.50
2018-06-24T05:53:15.874Z,15.60
2018-06-24T05:55:43.401Z,15.60
2018-06-24T05:58:10.995Z,15.60
2018-06-24T06:00:38.565Z,15.40
2018-06-24T06:03:06.123Z,15.40
2018-06-24T06:05:33.691Z,15.40
2018-06-24T06:08:01.263Z,15.30
2018-06-24T06:10:28.925Z,15.10
2018-06-24T06:12:56.444Z,15.10
2018-06-24T06:15:23.947Z,15.10
2018-06-24T06:17:51.544Z,15.00
2018-06-24T06:20:19.271Z,15.00
2018-06-24T06:22:46.832Z,15.00
2018-06-24T06:25:14.451Z,15.30
2018-06-24T06:27:42.019Z,15.40
2018-06-24T06:30:09.597Z,15.40
2018-06-24T06:32:37.156Z,15.40
2018-06-24T06:35:05.173Z,15.40
2018-06-24T06:37:32.717Z,15.40
2018-06-24T06:40:00.258Z,15.40
2018-06-24T06:42:27.879Z,15.40
2018-06-24T06:44:55.513Z,15.40
2018-06-24T06:47:23.015Z,15.40
2018-06-24T06:49:50.570Z,15.30
2018-06-24T06:52:18.149Z,15.20
2018-06-24T06:54:45.740Z,15.20
2018-06-24T06:57:13.362Z,15.20
2018-06-24T06:59:41.350Z,15.10
2018-06-24T07:02:09.000Z,15.10
2018-06-24T07:04:36.682Z,15.10
2018-06-24T07:07:04.226Z,15.20
2018-06-24T07:09:31.792Z,15.30
2018-06-24T07:11:59.392Z,15.30
2018-06-24T07:14:27.024Z,15.40
2018-06-24T07:16:54.636Z,15.50
2018-06-24T07:19:22.201Z,15.60
2018-06-24T07:21:49.792Z,15.60
2018-06-24T07:24:17.414Z,15.70
2018-06-24T07:26:44.979Z,15.80
2018-06-24T07:29:12.653Z,15.80
2018-06-24T07:31:40.258Z,16.00
2018-06-24T07:34:07.886Z,16.20
2018-06-24T07:36:35.492Z,16.30
2018-06-24T07:39:04.840Z,16.40
2018-06-24T07:41:32.396Z,16.50
2018-06-24T07:43:59.910Z,16.50
2018-06-24T07:46:27.428Z,16.70
2018-06-24T07:48:54.996Z,17.00
2018-06-24T07:51:22.557Z,17.30
2018-06-24T07:53:50.203Z,17.40
2018-06-24T07:56:17.797Z,17.40
2018-06-24T07:58:45.369Z,17.30
2018-06-24T08:01:12.907Z,17.10
2018-06-24T08:03:41.429Z,16.90
2018-06-24T08:06:09.005Z,16.70
2018-06-24T08:08:36.567Z,16.50
2018-06-24T08:11:04.144Z,16.40
2018-06-24T08:13:31.701Z,16.30
2018-06-24T08:15:59.255Z,16.30
2018-06-24T08:18:26.824Z,16.30
2018-06-24T08:20:54.371Z,16.30
2018-06-24T08:23:21.906Z,16.20
2018-06-24T08:25:49.481Z,16.20
2018-06-24T08:28:17.082Z,16.30
2018-06-24T08:30:44.664Z,16.40
2018-06-24T08:33:12.204Z,16.50
2018-06-24T08:35:39.750Z,16.60
2018-06-24T08:38:07.337Z,16.60
2018-06-24T08:40:34.983Z,16.60
2018-06-24T08:43:02.600Z,16.70
2018-06-24T08:45:30.256Z,16.80
2018-06-24T08:47:57.821Z,16.90
2018-06-24T08:50:25.407Z,17.00
2018-06-24T08:52:52.998Z,17.10
2018-06-24T08:55:20.547Z,17.20
2018-06-24T08:57:48.074Z,17.50
2018-06-24T09:00:15.709Z,17.70
2018-06-24T09:02:43.274Z,17.90
2018-06-24T09:05:10.833Z,18.10
2018-06-24T09:07:38.464Z,18.10
2018-06-24T09:10:06.060Z,18.20
2018-06-24T09:12:33.618Z,18.40
2018-06-24T09:15:01.165Z,18.60
2018-06-24T09:17:28.793Z,18.60
2018-06-24T09:19:56.376Z,18.60
2018-06-24T09:22:23.945Z,18.50
2018-06-24T09:24:51.568Z,18.30
2018-06-24T09:27:19.107Z,18.20
2018-06-24T09:29:46.688Z,17.90
2018-06-24T09:32:14.344Z,17.80
2018-06-24T09:34:41.932Z,17.90
2018-06-24T09:37:09.466Z,18.20
2018-06-24T09:39:37.066Z,18.40
2018-06-24T09:42:04.851Z,18.50
2018-06-24T09:44:32.424Z,18.50
2018-06-24T09:47:00.010Z,18.50
2018-06-24T09:49:27.563Z,18.70
2018-06-24T09:51:55.133Z,18.70
2018-06-24T09:54:22.694Z,18.70
2018-06-24T09:56:50.252Z,19.00
2018-06-24T09:59:17.827Z,19.50
2018-06-24T10:01:45.411Z,19.90
2018-06-24T10:04:13.064Z,20.30
2018-06-24T10:06:40.620Z,20.50
2018-06-24T10:09:09.376Z,20.50
2018-06-24T10:11:36.946Z,20.70
2018-06-24T10:14:04.530Z,20.80
2018-06-24T10:16:32.126Z,21.20
2018-06-24T10:18:59.694Z,21.40
2018-06-24T10:21:27.251Z,21.20
2018-06-24T10:23:54.791Z,20.80
2018-06-24T10:26:22.351Z,20.50
2018-06-24T10:28:49.911Z,20.30
2018-06-24T10:31:17.542Z,20.00
2018-06-24T10:33:45.105Z,19.80
2018-06-24T10:36:12.851Z,19.40
2018-06-24T10:38:40.579Z,19.10
2018-06-24T10:41:08.238Z,19.10
2018-06-24T10:43:35.880Z,19.30
2018-06-24T10:46:03.786Z,19.60
2018-06-24T10:48:31.394Z,20.00
2018-06-24T10:50:58.993Z,20.20
2018-06-24T10:53:26.565Z,20.30
2018-06-24T10:55:54.139Z,20.50
2018-06-24T10:58:21.717Z,21.10
2018-06-24T11:00:49.309Z,21.50
2018-06-24T11:03:16.932Z,21.60
2018-06-24T11:05:44.487Z,21.50
2018-06-24T11:08:12.075Z,21.50
2018-06-24T11:10:39.672Z,21.60
2018-06-24T11:13:07.298Z,21.70
2018-06-24T11:15:34.940Z,21.80
2018-06-24T11:18:02.607Z,21.80
2018-06-24T11:20:30.220Z,21.70
2018-06-24T11:22:57.968Z,21.80
2018-06-24T11:25:25.633Z,22.00
2018-06-24T11:27:53.338Z,22.00
2018-06-24T11:30:20.962Z,22.30
2018-06-24T11:32:48.564Z,22.70
2018-06-24T11:35:16.319Z,23.20
2018-06-24T11:37:43.902Z,23.40
2018-06-24T11:40:11.516Z,23.20
2018-06-24T11:42:39.107Z,22.90
2018-06-24T11:45:06.684Z,22.60
2018-06-24T11:47:34.312Z,22.40
2018-06-24T11:50:01.961Z,22.20
2018-06-24T11:52:29.560Z,21.90
2018-06-24T11:54:57.081Z,21.70
2018-06-24T11:57:24.657Z,21.70
2018-06-24T11:59:52.223Z,21.80
2018-06-24T12:02:19.779Z,21.90
2018-06-24T12:04:47.369Z,21.80
2018-06-24T12:07:14.966Z,21.80
2018-06-24T12:09:42.534Z,21.90
2018-06-24T12:12:10.137Z,22.10
2018-06-24T12:14:37.739Z,22.20
2018-06-24T12:17:05.332Z,22.30
2018-06-24T12:19:32.876Z,22.50
2018-06-24T12:22:00.412Z,22.90
2018-06-24T12:24:28.036Z,23.20
2018-06-24T12:26:55.628Z,23.00
2018-06-24T12:29:23.193Z,22.60
2018-06-24T12:31:50.794Z,22.30
2018-06-24T12:34:18.354Z,22.40
2018-06-24T12:36:45.934Z,22.70
2018-06-24T12:39:14.745Z,23.40
2018-06-24T12:41:42.351Z,23.70
2018-06-24T12:44:10.139Z,23.70
2018-06-24T12:46:37.723Z,23.70
2018-06-24T12:49:05.821Z,24.00
2018-06-24T12:51:33.599Z,23.90
2018-06-24T12:54:01.153Z,23.80
2018-06-24T12:56:28.919Z,23.60
2018-06-24T12:58:56.666Z,23.30
2018-06-24T13:01:24.085Z,23.30
2018-06-24T13:03:51.676Z,23.60
2018-06-24T13:06:19.321Z,23.90
2018-06-24T13:08:46.931Z,24.10
2018-06-24T13:11:14.511Z,24.20
2018-06-24T13:13:42.132Z,24.80
2018-06-24T13:16:09.738Z,25.20
2018-06-24T13:18:37.331Z,25.00
2018-06-24T13:21:05.036Z,25.10
2018-06-24T13:23:32.921Z,25.60
2018-06-24T13:26:00.506Z,26.10
2018-06-24T13:28:28.280Z,26.20
2018-06-24T13:30:55.971Z,25.90
2018-06-24T13:33:23.676Z,25.60
2018-06-24T13:35:51.234Z,25.20
2018-06-24T13:38:19.163Z,24.80
2018-06-24T13:40:46.710Z,24.50
2018-06-24T13:43:14.284Z,24.30
2018-06-24T13:45:41.932Z,24.20
2018-06-24T13:48:09.493Z,23.90
2018-06-24T13:50:37.172Z,23.40
2018-06-24T13:53:04.772Z,23.00
2018-06-24T13:55:32.333Z,22.80
2018-06-24T13:57:59.983Z,22.70
2018-06-24T14:00:27.515Z,22.70
2018-06-24T14:02:55.142Z,22.80
2018-06-24T14:05:22.780Z,22.60
2018-06-24T14:07:50.382Z,22.50
2018-06-24T14:10:18.208Z,22.50
2018-06-24T14:12:45.788Z,22.50
2018-06-24T14:15:13.377Z,22.40
2018-06-24T14:17:40.965Z,22.40
2018-06-24T14:20:08.581Z,22.40
2018-06-24T14:22:36.256Z,22.30
2018-06-24T14:25:04.348Z,22.30
2018-06-24T14:27:31.932Z,22.50
2018-06-24T14:29:59.519Z,22.80
2018-06-24T14:32:27.094Z,23.00
2018-06-24T14:34:54.702Z,23.20
2018-06-24T14:37:22.314Z,23.20
2018-06-24T14:39:49.926Z,23.10
2018-06-24T14:42:17.740Z,22.90
2018-06-24T14:44:45.319Z,22.70
2018-06-24T14:47:12.960Z,22.30
2018-06-24T14:49:40.569Z,21.90
2018-06-24T14:52:08.204Z,21.60
2018-06-24T14:54:35.814Z,21.30
2018-06-24T14:57:03.430Z,21.00
2018-06-24T14:59:30.961Z,20.70
2018-06-24T15:01:58.593Z,20.60
2018-06-24T15:04:26.161Z,20.50
2018-06-24T15:06:53.757Z,20.60
2018-06-24T15:09:21.362Z,20.70
2018-06-24T15:11:48.956Z,20.80
2018-06-24T15:14:16.880Z,20.90
2018-06-24T15:16:44.531Z,21.00
2018-06-24T15:19:12.226Z,21.20
2018-06-24T15:21:39.889Z,21.20
2018-06-24T15:24:07.486Z,21.40
2018-06-24T15:29:02.600Z,21.30
2018-06-24T15:31:30.234Z,21.30
2018-06-24T15:33:57.878Z,21.20
2018-06-24T15:36:25.489Z,21.10
2018-06-24T15:38:53.059Z,21.00
2018-06-24T15:41:20.622Z,21.00
2018-06-24T15:43:48.226Z,21.00
2018-06-24T15:46:15.828Z,20.90
2018-06-24T15:48:44.159Z,20.90
2018-06-24T15:51:13.046Z,20.90
2018-06-24T15:53:40.667Z,21.00
2018-06-24T15:56:08.251Z,21.30
2018-06-24T15:58:35.879Z,22.00
2018-06-24T16:01:03.510Z,23.10
2018-06-24T16:03:31.065Z,23.80
2018-06-24T16:05:58.766Z,24.20
2018-06-24T16:08:26.494Z,24.30
2018-06-24T16:10:54.072Z,24.20
2018-06-24T16:13:21.685Z,23.90
2018-06-24T16:15:49.287Z,23.70
2018-06-24T16:18:17.095Z,23.80
2018-06-24T16:20:44.845Z,23.90
2018-06-24T16:23:12.459Z,24.20
2018-06-24T16:25:40.214Z,24.60
2018-06-24T16:28:08.150Z,24.70
2018-06-24T16:30:35.897Z,24.60
2018-06-24T16:33:03.534Z,24.40
2018-06-24T16:35:31.191Z,24.20
2018-06-24T16:37:58.788Z,24.00
2018-06-24T16:40:26.624Z,23.60
2018-06-24T16:42:54.216Z,23.20
2018-06-24T16:45:21.883Z,22.90
2018-06-24T16:47:49.469Z,22.80
2018-06-24T16:50:17.634Z,22.60
2018-06-24T16:52:45.024Z,22.50
2018-06-24T16:55:12.678Z,22.40
2018-06-24T16:57:40.298Z,22.30
2018-06-24T17:00:08.025Z,22.10
2018-06-24T17:02:35.852Z,21.80
2018-06-24T17:05:03.632Z,21.60
2018-06-24T17:07:31.661Z,21.30
2018-06-24T17:09:59.244Z,21.20
2018-06-24T17:12:27.073Z,21.00
2018-06-24T17:14:56.589Z,20.90
2018-06-24T17:17:24.336Z,20.80
2018-06-24T17:19:51.992Z,20.70
2018-06-24T17:22:19.639Z,20.50
2018-06-24T17:24:47.250Z,20.40
2018-06-24T17:27:14.854Z,20.30
2018-06-24T17:29:42.583Z,20.20
2018-06-24T17:32:10.165Z,20.20
2018-06-24T17:34:37.798Z,20.10
2018-06-24T17:37:05.473Z,20.00
2018-06-24T17:39:33.217Z,19.90
2018-06-24T17:42:01.265Z,19.90
2018-06-24T17:44:29.617Z,19.90
2018-06-24T17:46:57.252Z,19.90
2018-06-24T17:49:25.942Z,19.90
2018-06-24T17:51:53.647Z,19.90
2018-06-24T17:54:21.503Z,19.80
2018-06-24T17:56:49.148Z,19.70
2018-06-24T17:59:16.893Z,19.60
2018-06-24T18:01:44.607Z,19.50
2018-06-24T18:04:12.414Z,19.40
2018-06-24T18:06:41.029Z,19.40
2018-06-24T18:09:10.344Z,19.30
2018-06-24T18:11:38.557Z,19.20
2018-06-24T18:14:06.468Z,19.10
2018-06-24T18:16:34.561Z,19.00
2018-06-24T18:19:02.228Z,18.90
2018-06-24T18:21:29.942Z,18.80
2018-06-24T18:23:58.553Z,18.70
2018-06-24T18:26:27.029Z,18.70
2018-06-24T18:28:54.838Z,18.60
2018-06-24T18:31:24.364Z,18.50
2018-06-24T18:33:52.299Z,18.50
2018-06-24T18:36:20.081Z,18.50
2018-06-24T18:38:49.107Z,18.40
2018-06-24T18:41:16.957Z,18.40
2018-06-24T18:43:45.410Z,18.40
2018-06-24T18:46:13.125Z,18.40
2018-06-24T18:48:41.470Z,18.30
2018-06-24T18:51:09.456Z,18.30
2018-06-24T18:53:37.126Z,18.30
2018-06-24T18:56:04.917Z,18.20
2018-06-24T18:58:32.666Z,18.20
2018-06-24T19:01:00.308Z,18.20
2018-06-24T19:03:29.079Z,18.10
2018-06-24T19:05:57.741Z,18.10
2018-06-24T19:08:25.555Z,18.00
2018-06-24T19:10:53.259Z,18.00
2018-06-24T19:13:21.108Z,17.90
2018-06-24T19:15:48.810Z,17.90
2018-06-24T19:18:17.101Z,17.80
2018-06-24T19:20:45.995Z,17.70
2018-06-24T19:23:13.756Z,17.70
2018-06-24T19:25:41.496Z,17.70
2018-06-24T19:28:09.207Z,17.60
2018-06-24T19:30:36.992Z,17.50
2018-06-24T19:33:04.954Z,17.50
2018-06-24T19:35:33.163Z,17.50
2018-06-24T19:38:01.091Z,17.40
2018-06-24T19:40:28.806Z,17.40
2018-06-24T19:42:56.513Z,17.40
2018-06-24T19:45:24.191Z,17.40
2018-06-24T19:47:51.934Z,17.40
2018-06-24T19:50:19.995Z,17.40
2018-06-24T19:52:48.128Z,17.40
2018-06-24T19:55:15.800Z,17.40
2018-06-24T19:57:43.612Z,17.40
2018-06-24T20:00:11.276Z,17.40
2018-06-24T20:02:39.656Z,17.30
2018-06-24T20:05:07.607Z,17.30
2018-06-24T20:07:35.426Z,17.20
2018-06-24T20:10:03.143Z,17.20
2018-06-24T20:12:30.819Z,17.20
2018-06-24T20:14:58.508Z,17.10
2018-06-24T20:17:26.143Z,17.10
2018-06-24T20:19:53.833Z,17.00
2018-06-24T20:22:21.532Z,17.00
2018-06-24T20:24:49.193Z,17.00
2018-06-24T20:27:17.016Z,17.00
2018-06-24T20:29:44.651Z,16.90
2018-06-24T20:32:12.465Z,16.90
2018-06-24T20:34:40.212Z,16.90
2018-06-24T20:37:08.152Z,16.90
2018-06-24T20:39:36.713Z,16.90
2018-06-24T20:42:04.750Z,16.80
2018-06-24T20:44:32.344Z,16.80
2018-06-24T20:47:01.092Z,16.80
2018-06-24T20:49:28.807Z,16.70
2018-06-24T20:51:56.412Z,16.70
2018-06-24T20:54:24.072Z,16.70
2018-06-24T20:56:51.856Z,16.60
2018-06-24T20:59:19.468Z,16.60
2018-06-24T21:01:47.034Z,16.60
2018-06-24T21:04:14.644Z,16.60
2018-06-24T21:06:42.292Z,16.60
2018-06-24T21:09:10.849Z,16.50
2018-06-24T21:11:39.974Z,16.50
2018-06-24T21:14:07.552Z,16.50
2018-06-24T21:16:35.073Z,16.40
2018-06-24T21:19:02.696Z,16.40
2018-06-24T21:21:30.315Z,16.30
2018-06-24T21:23:57.831Z,16.30
2018-06-24T21:26:26.164Z,16.30
2018-06-24T21:31:21.453Z,16.20
2018-06-24T21:33:49.029Z,16.20
2018-06-24T21:36:16.898Z,16.20
2018-06-24T21:38:44.476Z,16.10
2018-06-24T21:41:12.037Z,16.10
2018-06-24T21:43:40.606Z,16.00
2018-06-24T21:46:08.323Z,16.00
2018-06-24T21:48:36.149Z,15.90
2018-06-24T21:51:03.970Z,15.90
2018-06-24T21:53:31.538Z,15.80
2018-06-24T21:55:59.133Z,15.80
2018-06-24T21:58:26.681Z,15.80
2018-06-24T22:00:54.336Z,15.70
2018-06-24T22:03:22.021Z,15.70
2018-06-24T22:05:49.692Z,15.70
2018-06-24T22:08:18.939Z,15.70
2018-06-24T22:10:46.694Z,15.70
2018-06-24T22:13:14.212Z,15.80
2018-06-24T22:15:41.821Z,15.70
2018-06-24T22:18:09.369Z,15.80
2018-06-24T22:20:36.908Z,15.70
2018-06-24T22:23:04.494Z,15.70
2018-06-24T22:25:32.112Z,15.70
2018-06-24T22:27:59.672Z,15.70
2018-06-24T22:30:27.288Z,15.70
2018-06-24T22:32:54.802Z,15.70
2018-06-24T22:35:22.332Z,15.70
2018-06-24T22:37:49.860Z,15.70
2018-06-24T22:40:17.402Z,15.70
2018-06-24T22:42:44.947Z,15.60
2018-06-24T22:45:12.674Z,15.60
2018-06-24T22:47:40.258Z,15.60
2018-06-24T22:50:07.782Z,15.50
2018-06-24T22:52:35.316Z,15.50
2018-06-24T22:55:02.856Z,15.40
2018-06-24T22:57:30.368Z,15.40
2018-06-24T23:00:15.114Z,15.40
2018-06-24T23:02:43.212Z,15.40
2018-06-24T23:05:11.414Z,15.40
2018-06-24T23:07:40.336Z,15.40
2018-06-24T23:10:07.890Z,15.40
2018-06-24T23:12:35.462Z,15.40
2018-06-24T23:15:03.900Z,15.40
2018-06-24T23:17:31.453Z,15.40
2018-06-24T23:19:58.996Z,15.40
2018-06-24T23:22:26.568Z,15.30
2018-06-24T23:24:54.202Z,15.30
2018-06-24T23:27:21.819Z,15.20
2018-06-24T23:29:50.529Z,15.20
2018-06-24T23:32:18.174Z,15.20
2018-06-24T23:34:45.927Z,15.10
2018-06-24T23:37:13.477Z,14.90
2018-06-24T23:39:41.039Z,14.80
2018-06-24T23:42:08.729Z,14.60
2018-06-24T23:44:36.298Z,14.40
2018-06-24T23:47:04.024Z,14.30
2018-06-24T23:49:32.064Z,14.20
2018-06-24T23:52:00.573Z,14.10
2018-06-24T23:54:28.337Z,14.00
2018-06-24T23:56:56.015Z,14.00
2018-06-24T23:59:23.668Z,14.00
